Terminal Aerodrome Forecast
Issued by NWS

Home | Current Version | Previous Version | Graphics & Text | Print | Product List | Glossary On
Versions: 1 2 3 4 5 6 7 8 9 10 11 12 13 14 15 16
000
FTUS41 KCLE 241000 AAB
TAFFDY
TAF AMD
KFDY 241038Z 2411/2506 15010KT P6SM SCT006 OVC012
     FM241500 15012KT 5SM BR OVC006
     FM242100 18015G25KT 6SM -SHRA OVC010
     FM242300 24022G40KT P6SM OVC012=

USA.gov is the U.S. government's official web portal to all federal, state and local government web resources and services.